createdAt,value
2023-06-11T00:00:26.099Z,0.00
2023-06-11T00:01:26.079Z,0.00
2023-06-11T00:02:26.204Z,0.00
2023-06-11T00:03:26.283Z,0.00
2023-06-11T00:04:26.430Z,0.00
2023-06-11T00:05:26.053Z,0.00
2023-06-11T00:06:26.054Z,0.00
2023-06-11T00:07:26.027Z,0.00
2023-06-11T00:08:26.033Z,0.00
2023-06-11T00:09:26.021Z,0.00
2023-06-11T00:10:26.008Z,0.00
2023-06-11T00:11:25.988Z,0.00
2023-06-11T00:12:25.993Z,0.00
2023-06-11T00:13:25.971Z,0.00
2023-06-11T00:14:25.959Z,0.00
2023-06-11T00:15:25.931Z,0.00
2023-06-11T00:16:26.074Z,0.00
2023-06-11T00:17:25.941Z,0.00
2023-06-11T00:18:25.929Z,0.00
2023-06-11T00:19:25.892Z,0.00
2023-06-11T00:20:25.884Z,0.00
2023-06-11T00:21:25.866Z,0.00
2023-06-11T00:22:25.900Z,0.00
2023-06-11T00:23:25.849Z,0.00
2023-06-11T00:24:26.088Z,0.00
2023-06-11T00:25:25.857Z,0.00
2023-06-11T00:26:25.847Z,0.00
2023-06-11T00:27:25.823Z,0.00
2023-06-11T00:28:25.808Z,0.00
2023-06-11T00:29:25.786Z,0.00
2023-06-11T00:30:25.800Z,0.00
2023-06-11T00:31:25.812Z,0.00
2023-06-11T00:32:25.820Z,0.00
2023-06-11T00:33:25.743Z,0.00
2023-06-11T00:34:25.743Z,0.00
2023-06-11T00:35:25.836Z,0.00
2023-06-11T00:36:25.724Z,0.00
2023-06-11T00:37:25.697Z,0.00
2023-06-11T00:38:25.709Z,0.00
2023-06-11T00:39:25.676Z,0.00
2023-06-11T00:40:25.712Z,0.00
2023-06-11T00:41:25.674Z,0.00
2023-06-11T00:42:25.663Z,0.00
2023-06-11T00:43:25.640Z,0.00
2023-06-11T00:44:25.651Z,0.00
2023-06-11T00:45:25.628Z,0.00
2023-06-11T00:46:25.762Z,0.00
2023-06-11T00:47:25.661Z,0.00
2023-06-11T00:48:25.624Z,0.00
2023-06-11T00:49:25.590Z,0.00
2023-06-11T00:50:25.587Z,0.00
2023-06-11T00:51:25.553Z,0.00
2023-06-11T00:52:25.556Z,0.00
2023-06-11T00:53:25.542Z,0.00
2023-06-11T00:54:25.546Z,0.00
2023-06-11T00:55:25.524Z,0.00
2023-06-11T00:56:25.540Z,0.00
2023-06-11T00:57:25.498Z,0.00
2023-06-11T00:58:25.542Z,0.00
2023-06-11T00:59:25.482Z,0.00
2023-06-11T01:00:25.464Z,0.00
2023-06-11T01:01:25.565Z,0.00
2023-06-11T01:02:25.460Z,0.00
2023-06-11T01:03:25.429Z,0.00
2023-06-11T01:04:25.468Z,0.00
2023-06-11T01:05:25.600Z,0.00
2023-06-11T01:06:25.415Z,0.00
2023-06-11T01:07:25.384Z,0.00
2023-06-11T01:08:25.377Z,0.00
2023-06-11T01:09:25.375Z,0.00
2023-06-11T01:10:25.358Z,0.00
2023-06-11T01:11:25.335Z,0.00
2023-06-11T01:12:25.386Z,0.00
2023-06-11T01:13:25.319Z,0.00
2023-06-11T01:14:25.318Z,0.00
2023-06-11T01:15:25.301Z,0.00
2023-06-11T01:16:25.368Z,0.00
2023-06-11T01:17:25.401Z,0.00
2023-06-11T01:18:25.288Z,0.00
2023-06-11T01:19:25.258Z,0.00
2023-06-11T01:20:25.253Z,0.00
2023-06-11T01:21:25.260Z,0.00
2023-06-11T01:22:25.253Z,0.00
2023-06-11T01:23:25.229Z,0.00
2023-06-11T01:24:25.276Z,0.00
2023-06-11T01:25:25.209Z,0.00
2023-06-11T01:26:25.200Z,0.00
2023-06-11T01:27:25.176Z,0.00
2023-06-11T01:28:25.198Z,0.00
2023-06-11T01:29:25.168Z,0.00
2023-06-11T01:30:25.174Z,0.00
2023-06-11T01:31:25.235Z,0.00
2023-06-11T01:32:25.313Z,0.00
2023-06-11T01:33:25.135Z,0.00
2023-06-11T01:34:25.132Z,0.00
2023-06-11T01:35:25.101Z,0.00
2023-06-11T01:36:25.089Z,0.00
2023-06-11T01:37:25.070Z,0.00
2023-06-11T01:38:25.070Z,0.00
2023-06-11T01:39:25.048Z,0.00
2023-06-11T01:40:25.044Z,0.00
2023-06-11T01:41:25.024Z,0.00
2023-06-11T01:42:25.019Z,0.00
2023-06-11T01:43:25.012Z,0.00
2023-06-11T01:44:25.022Z,0.00
2023-06-11T01:45:25.012Z,0.00
2023-06-11T01:46:25.004Z,0.00
2023-06-11T01:47:24.990Z,0.00
2023-06-11T01:48:24.961Z,0.00
2023-06-11T01:49:24.961Z,0.00
2023-06-11T01:50:24.957Z,0.00
2023-06-11T01:51:24.920Z,0.00
2023-06-11T01:52:24.976Z,0.00
2023-06-11T01:53:24.939Z,0.00
2023-06-11T01:54:24.902Z,0.00
2023-06-11T01:55:24.882Z,0.00
2023-06-11T01:56:24.888Z,0.00
2023-06-11T01:57:24.856Z,0.00
2023-06-11T01:58:24.898Z,0.00
2023-06-11T01:59:24.858Z,0.00
2023-06-11T02:00:24.878Z,0.00
2023-06-11T02:01:24.893Z,0.00
2023-06-11T02:02:24.835Z,0.00
2023-06-11T02:03:24.846Z,0.00
2023-06-11T02:04:24.819Z,0.00
2023-06-11T02:05:24.771Z,0.00
2023-06-11T02:06:24.796Z,0.00
2023-06-11T02:07:24.759Z,0.00
2023-06-11T02:08:24.761Z,0.00
2023-06-11T02:09:24.749Z,0.00
2023-06-11T02:10:24.734Z,0.00
2023-06-11T02:11:24.726Z,0.00
2023-06-11T02:12:24.696Z,0.00
2023-06-11T02:13:24.716Z,0.00
2023-06-11T02:14:24.704Z,0.00
2023-06-11T02:15:24.672Z,0.00
2023-06-11T02:16:24.772Z,0.00
2023-06-11T02:17:24.682Z,0.00
2023-06-11T02:18:24.658Z,0.00
2023-06-11T02:19:24.652Z,0.00
2023-06-11T02:20:24.639Z,0.00
2023-06-11T02:21:24.614Z,0.00
2023-06-11T02:22:24.609Z,0.00
2023-06-11T02:23:24.596Z,0.00
2023-06-11T02:24:24.676Z,0.00
2023-06-11T02:25:24.614Z,0.00
2023-06-11T02:26:24.560Z,0.00
2023-06-11T02:27:24.562Z,0.00
2023-06-11T02:28:24.569Z,0.00
2023-06-11T02:29:24.566Z,0.00
2023-06-11T02:30:24.547Z,0.00
2023-06-11T02:31:24.638Z,0.00
2023-06-11T02:32:24.551Z,0.00
2023-06-11T02:33:24.489Z,0.00
2023-06-11T02:34:24.465Z,0.00
2023-06-11T02:35:24.461Z,0.00
2023-06-11T02:36:24.453Z,0.00
2023-06-11T02:37:24.454Z,0.00
2023-06-11T02:38:24.452Z,0.00
2023-06-11T02:39:24.421Z,0.00
2023-06-11T02:40:24.434Z,0.00
2023-06-11T02:41:24.403Z,0.00
2023-06-11T02:42:24.402Z,0.00
2023-06-11T02:43:24.384Z,0.00
2023-06-11T02:44:24.367Z,0.00
2023-06-11T02:45:24.372Z,0.00
2023-06-11T02:46:24.422Z,0.00
2023-06-11T02:47:24.351Z,1.00
2023-06-11T02:48:24.347Z,0.00
2023-06-11T02:49:24.295Z,1.00
2023-06-11T02:50:24.237Z,1.00
2023-06-11T02:51:24.263Z,1.00
2023-06-11T02:52:24.238Z,1.00
2023-06-11T02:53:24.312Z,0.00
2023-06-11T02:54:24.257Z,0.00
2023-06-11T02:55:24.210Z,2.00
2023-06-11T02:56:24.188Z,1.00
2023-06-11T02:57:24.187Z,1.00
2023-06-11T02:58:24.162Z,2.00
2023-06-11T02:59:24.190Z,1.00
2023-06-11T03:00:24.157Z,1.00
2023-06-11T03:01:24.234Z,4.00
2023-06-11T03:02:24.142Z,3.00
2023-06-11T03:03:24.172Z,2.00
2023-06-11T03:04:24.209Z,3.00
2023-06-11T03:05:24.119Z,3.00
2023-06-11T03:06:24.087Z,3.00
2023-06-11T03:07:24.068Z,6.00
2023-06-11T03:08:24.057Z,5.00
2023-06-11T03:09:24.052Z,7.00
2023-06-11T03:10:24.044Z,8.00
2023-06-11T03:11:24.049Z,5.00
2023-06-11T03:12:24.022Z,10.00
2023-06-11T03:13:24.054Z,14.00
2023-06-11T03:14:23.996Z,13.00
2023-06-11T03:15:24.004Z,15.00
2023-06-11T03:16:24.015Z,19.00
2023-06-11T03:17:24.007Z,22.00
2023-06-11T03:18:23.947Z,26.00
2023-06-11T03:19:23.948Z,28.00
2023-06-11T03:20:23.981Z,29.00
2023-06-11T03:21:23.966Z,34.00
2023-06-11T03:22:23.924Z,40.00
2023-06-11T03:23:23.972Z,45.00
2023-06-11T03:24:23.997Z,47.00
2023-06-11T03:25:23.885Z,55.00
2023-06-11T03:26:23.870Z,64.00
2023-06-11T03:27:23.861Z,65.00
2023-06-11T03:28:23.851Z,72.00
2023-06-11T03:29:23.850Z,81.00
2023-06-11T03:30:23.820Z,87.00
2023-06-11T03:31:23.844Z,95.00
2023-06-11T03:32:23.843Z,103.00
2023-06-11T03:33:23.798Z,111.00
2023-06-11T03:34:23.788Z,118.00
2023-06-11T03:35:23.791Z,128.00
2023-06-11T03:36:23.805Z,135.00
2023-06-11T03:37:23.754Z,148.00
2023-06-11T03:38:23.741Z,155.00
2023-06-11T03:39:23.739Z,165.00
2023-06-11T03:40:23.718Z,176.00
2023-06-11T03:41:23.709Z,186.00
2023-06-11T03:42:23.709Z,197.00
2023-06-11T03:43:23.723Z,208.00
2023-06-11T03:44:23.677Z,219.00
2023-06-11T03:45:23.721Z,223.00
2023-06-11T03:46:23.692Z,233.00
2023-06-11T03:47:23.668Z,250.00
2023-06-11T03:48:23.634Z,261.00
2023-06-11T03:49:23.634Z,270.00
2023-06-11T03:50:23.613Z,268.00
2023-06-11T03:51:23.609Z,270.00
2023-06-11T03:52:23.624Z,273.00
2023-06-11T03:53:23.613Z,273.00
2023-06-11T03:54:23.584Z,275.00
2023-06-11T03:55:23.576Z,295.00
2023-06-11T03:56:23.549Z,312.00
2023-06-11T03:57:23.538Z,319.00
2023-06-11T03:58:23.549Z,338.00
2023-06-11T03:59:23.533Z,348.00
2023-06-11T04:00:23.507Z,366.00
2023-06-11T04:01:23.507Z,378.00
2023-06-11T04:02:23.592Z,393.00
2023-06-11T04:03:23.525Z,403.00
2023-06-11T04:04:23.519Z,419.00
2023-06-11T04:05:23.455Z,429.00
2023-06-11T04:06:23.497Z,444.00
2023-06-11T04:07:23.437Z,457.00
2023-06-11T04:08:23.506Z,470.00
2023-06-11T04:09:23.433Z,479.00
2023-06-11T04:10:23.513Z,489.00
2023-06-11T04:11:23.436Z,494.00
2023-06-11T04:12:23.424Z,503.00
2023-06-11T04:13:23.451Z,513.00
2023-06-11T04:14:23.428Z,520.00
2023-06-11T04:15:23.362Z,530.00
2023-06-11T04:16:23.362Z,545.00
2023-06-11T04:17:23.488Z,564.00
2023-06-11T04:18:23.339Z,589.00
2023-06-11T04:19:23.338Z,602.00
2023-06-11T04:20:23.335Z,608.00
2023-06-11T04:21:23.322Z,622.00
2023-06-11T04:22:23.301Z,624.00
2023-06-11T04:23:23.292Z,626.00
2023-06-11T04:24:23.355Z,633.00
2023-06-11T04:25:23.272Z,645.00
2023-06-11T04:26:23.255Z,656.00
2023-06-11T04:27:23.228Z,671.00
2023-06-11T04:28:23.225Z,676.00
2023-06-11T04:29:23.223Z,685.00
2023-06-11T04:30:23.194Z,696.00
2023-06-11T04:31:23.275Z,705.00
2023-06-11T04:32:23.235Z,716.00
2023-06-11T04:33:23.167Z,731.00
2023-06-11T04:34:23.154Z,730.00
2023-06-11T04:35:23.154Z,744.00
2023-06-11T04:36:23.139Z,754.00
2023-06-11T04:37:23.126Z,771.00
2023-06-11T04:38:23.113Z,786.00
2023-06-11T04:39:23.113Z,779.00
2023-06-11T04:40:23.111Z,788.00
2023-06-11T04:41:23.089Z,789.00
2023-06-11T04:42:23.071Z,788.00
2023-06-11T04:43:23.059Z,786.00
2023-06-11T04:44:23.054Z,801.00
2023-06-11T04:45:23.053Z,820.00
2023-06-11T04:46:23.110Z,833.00
2023-06-11T04:47:23.064Z,840.00
2023-06-11T04:48:23.004Z,835.00
2023-06-11T04:49:23.046Z,827.00
2023-06-11T04:50:23.001Z,826.00
2023-06-11T04:51:23.011Z,839.00
2023-06-11T04:52:22.970Z,838.00
2023-06-11T04:53:23.011Z,847.00
2023-06-11T04:54:23.036Z,861.00
2023-06-11T04:55:22.974Z,872.00
2023-06-11T04:56:22.939Z,888.00
2023-06-11T04:57:22.913Z,897.00
2023-06-11T04:58:22.896Z,906.00
2023-06-11T04:59:22.899Z,921.00
2023-06-11T05:00:22.886Z,924.00
2023-06-11T05:01:22.903Z,909.00
2023-06-11T05:02:22.914Z,917.00
2023-06-11T05:03:22.866Z,928.00
2023-06-11T05:04:22.867Z,927.00
2023-06-11T05:05:22.861Z,922.00
2023-06-11T05:06:22.979Z,918.00
2023-06-11T05:07:22.820Z,925.00
2023-06-11T05:08:22.808Z,929.00
2023-06-11T05:09:22.801Z,947.00
2023-06-11T05:10:22.775Z,949.00
2023-06-11T05:11:22.796Z,945.00
2023-06-11T05:12:22.814Z,940.00
2023-06-11T05:13:22.750Z,943.00
2023-06-11T05:14:22.798Z,942.00
2023-06-11T05:15:22.740Z,951.00
2023-06-11T05:16:22.885Z,947.00
2023-06-11T05:17:22.734Z,907.00
2023-06-11T05:18:22.720Z,948.00
2023-06-11T05:19:22.726Z,1006.00
2023-06-11T05:20:22.677Z,1001.00
2023-06-11T05:21:22.693Z,976.00
2023-06-11T05:22:22.684Z,951.00
2023-06-11T05:23:22.648Z,938.00
2023-06-11T05:24:22.703Z,912.00
2023-06-11T05:25:22.655Z,933.00
2023-06-11T05:26:22.633Z,994.00
2023-06-11T05:27:22.611Z,1034.00
2023-06-11T05:28:22.635Z,1048.00
2023-06-11T05:29:22.610Z,1059.00
2023-06-11T05:30:22.584Z,1053.00
2023-06-11T05:31:22.665Z,1059.00
2023-06-11T05:32:22.656Z,1066.00
2023-06-11T05:33:22.543Z,1062.00
2023-06-11T05:34:22.516Z,1067.00
2023-06-11T05:35:22.543Z,1080.00
2023-06-11T05:36:22.509Z,1083.00
2023-06-11T05:37:22.518Z,1096.00
2023-06-11T05:38:22.474Z,1097.00
2023-06-11T05:39:22.480Z,1099.00
2023-06-11T05:40:22.462Z,1108.00
2023-06-11T05:41:22.468Z,1115.00
2023-06-11T05:42:22.436Z,1115.00
2023-06-11T05:43:22.470Z,1139.00
2023-06-11T05:44:22.444Z,1133.00
2023-06-11T05:45:22.420Z,1135.00
2023-06-11T05:46:22.439Z,1144.00
2023-06-11T05:47:22.478Z,1147.00
2023-06-11T05:48:22.439Z,1159.00
2023-06-11T05:49:22.374Z,1164.00
2023-06-11T05:50:22.361Z,1175.00
2023-06-11T05:51:22.366Z,1181.00
2023-06-11T05:52:22.345Z,1186.00
2023-06-11T05:53:22.341Z,1205.00
2023-06-11T05:54:22.309Z,1209.00
2023-06-11T05:55:22.336Z,1185.00
2023-06-11T05:56:22.306Z,1199.00
2023-06-11T05:57:22.305Z,1199.00
2023-06-11T05:58:22.268Z,1208.00
2023-06-11T05:59:22.285Z,1217.00
2023-06-11T06:00:22.362Z,1224.00
2023-06-11T06:01:22.247Z,1253.00
2023-06-11T06:02:22.292Z,1233.00
2023-06-11T06:03:22.331Z,1250.00
2023-06-11T06:04:22.322Z,1250.00
2023-06-11T06:05:22.312Z,1263.00
2023-06-11T06:06:22.176Z,1267.00
2023-06-11T06:07:22.191Z,1271.00
2023-06-11T06:08:22.160Z,1282.00
2023-06-11T06:09:22.152Z,1308.00
2023-06-11T06:10:22.146Z,1264.00
2023-06-11T06:11:22.136Z,1296.00
2023-06-11T06:12:22.119Z,1299.00
2023-06-11T06:13:22.142Z,1301.00
2023-06-11T06:14:22.093Z,1312.00
2023-06-11T06:15:22.087Z,1327.00
2023-06-11T06:16:22.177Z,1306.00
2023-06-11T06:17:22.077Z,1299.00
2023-06-11T06:18:22.135Z,1754.00
2023-06-11T06:19:22.057Z,2767.00
2023-06-11T06:20:22.100Z,2038.00
2023-06-11T06:21:22.044Z,1608.00
2023-06-11T06:22:22.017Z,1597.00
2023-06-11T06:23:22.016Z,1608.00
2023-06-11T06:24:22.073Z,1644.00
2023-06-11T06:25:21.994Z,1593.00
2023-06-11T06:26:21.980Z,1585.00
2023-06-11T06:27:21.974Z,1352.00
2023-06-11T06:28:21.978Z,1017.00
2023-06-11T06:29:21.940Z,752.00
2023-06-11T06:30:21.961Z,1191.00
2023-06-11T06:31:22.111Z,1337.00
2023-06-11T06:32:21.964Z,1350.00
2023-06-11T06:33:21.910Z,1359.00
2023-06-11T06:34:21.893Z,1365.00
2023-06-11T06:35:21.881Z,1415.00
2023-06-11T06:36:21.869Z,1586.00
2023-06-11T06:37:21.907Z,1403.00
2023-06-11T06:38:21.857Z,1413.00
2023-06-11T06:39:21.845Z,1419.00
2023-06-11T06:40:21.846Z,1450.00
2023-06-11T06:41:21.825Z,1442.00
2023-06-11T06:42:21.831Z,1457.00
2023-06-11T06:43:21.794Z,1481.00
2023-06-11T06:44:21.801Z,1493.00
2023-06-11T06:45:21.779Z,1510.00
2023-06-11T06:46:21.794Z,1509.00
2023-06-11T06:47:21.822Z,1508.00
2023-06-11T06:48:21.839Z,1499.00
2023-06-11T06:49:21.770Z,1516.00
2023-06-11T06:50:21.879Z,1516.00
2023-06-11T06:51:21.785Z,1538.00
2023-06-11T06:52:21.731Z,1556.00
2023-06-11T06:53:21.703Z,1556.00
2023-06-11T06:54:21.716Z,1557.00
2023-06-11T06:55:21.688Z,1561.00
2023-06-11T06:56:21.670Z,1581.00
2023-06-11T06:57:21.673Z,1574.00
2023-06-11T06:58:21.682Z,1607.00
2023-06-11T06:59:21.658Z,1607.00
2023-06-11T07:00:21.645Z,1625.00
2023-06-11T07:01:21.708Z,1633.00
2023-06-11T07:02:21.678Z,1645.00
2023-06-11T07:03:21.607Z,1625.00
2023-06-11T07:04:21.632Z,1675.00
2023-06-11T07:05:21.653Z,1624.00
2023-06-11T07:06:21.584Z,1637.00
2023-06-11T07:07:21.552Z,1632.00
2023-06-11T07:08:21.576Z,1641.00
2023-06-11T07:09:21.533Z,1639.00
2023-06-11T07:10:21.538Z,1665.00
2023-06-11T07:11:21.514Z,1681.00
2023-06-11T07:12:21.573Z,1691.00
2023-06-11T07:13:21.512Z,1697.00
2023-06-11T07:14:21.491Z,1732.00
2023-06-11T07:15:21.479Z,1766.00
2023-06-11T07:16:21.584Z,1742.00
2023-06-11T07:17:21.509Z,1756.00
2023-06-11T07:18:21.453Z,1721.00
2023-06-11T07:19:21.469Z,1733.00
2023-06-11T07:20:21.473Z,1749.00
2023-06-11T07:21:21.429Z,1740.00
2023-06-11T07:22:21.412Z,1739.00
2023-06-11T07:23:23.008Z,1742.00
2023-06-11T07:24:21.484Z,1761.00
2023-06-11T07:25:21.381Z,1730.00
2023-06-11T07:26:21.373Z,1699.00
2023-06-11T07:27:21.350Z,1684.00
2023-06-11T07:28:21.378Z,1716.00
2023-06-11T07:29:21.328Z,1694.00
2023-06-11T07:30:21.338Z,1705.00
2023-06-11T07:31:21.340Z,1697.00
2023-06-11T07:32:21.307Z,1704.00
2023-06-11T07:33:21.290Z,1713.00
2023-06-11T07:34:21.313Z,1724.00
2023-06-11T07:35:21.269Z,1724.00
2023-06-11T07:36:21.302Z,1730.00
2023-06-11T07:37:21.252Z,1744.00
2023-06-11T07:38:21.248Z,1751.00
2023-06-11T07:39:21.225Z,1761.00
2023-06-11T07:40:21.251Z,1787.00
2023-06-11T07:41:21.223Z,1804.00
2023-06-11T07:42:21.206Z,1812.00
2023-06-11T07:43:21.194Z,1790.00
2023-06-11T07:44:21.183Z,1802.00
2023-06-11T07:45:22.984Z,1837.00
2023-06-11T07:46:21.216Z,1791.00
2023-06-11T07:47:21.184Z,1801.00
2023-06-11T07:48:21.144Z,1820.00
2023-06-11T07:49:21.143Z,1804.00
2023-06-11T07:50:21.136Z,1806.00
2023-06-11T07:51:21.137Z,1806.00
2023-06-11T07:52:21.144Z,1785.00
2023-06-11T07:53:21.089Z,1816.00
2023-06-11T07:54:21.078Z,1870.00
2023-06-11T07:55:21.072Z,1821.00
2023-06-11T07:56:21.064Z,1859.00
2023-06-11T07:57:21.059Z,1825.00
2023-06-11T07:58:21.041Z,1858.00
2023-06-11T07:59:21.060Z,1879.00
2023-06-11T08:00:21.053Z,1926.00
2023-06-11T08:01:21.023Z,1974.00
2023-06-11T08:02:21.066Z,1910.00
2023-06-11T08:03:21.127Z,1906.00
2023-06-11T08:04:20.998Z,1942.00
2023-06-11T08:05:21.059Z,1988.00
2023-06-11T08:06:21.048Z,1989.00
2023-06-11T08:07:20.954Z,2024.00
2023-06-11T08:08:20.969Z,1974.00
2023-06-11T08:09:20.930Z,1997.00
2023-06-11T08:10:20.940Z,2025.00
2023-06-11T08:11:20.917Z,2011.00
2023-06-11T08:12:20.905Z,2173.00
2023-06-11T08:13:20.886Z,2042.00
2023-06-11T08:14:20.884Z,2086.00
2023-06-11T08:15:20.876Z,2101.00
2023-06-11T08:16:20.866Z,2113.00
2023-06-11T08:17:20.932Z,2130.00
2023-06-11T08:18:20.877Z,2145.00
2023-06-11T08:19:20.820Z,2170.00
2023-06-11T08:20:20.829Z,2303.00
2023-06-11T08:21:20.842Z,2232.00
2023-06-11T08:22:20.804Z,2369.00
2023-06-11T08:23:20.780Z,2279.00
2023-06-11T08:24:20.897Z,2266.00
2023-06-11T08:25:20.759Z,2301.00
2023-06-11T08:26:20.774Z,2330.00
2023-06-11T08:27:20.755Z,2363.00
2023-06-11T08:28:20.744Z,2509.00
2023-06-11T08:29:20.729Z,2378.00
2023-06-11T08:30:20.717Z,2467.00
2023-06-11T08:31:20.714Z,2427.00
2023-06-11T08:32:20.832Z,2457.00
2023-06-11T08:33:20.759Z,2460.00
2023-06-11T08:34:20.698Z,2492.00
2023-06-11T08:35:20.670Z,2568.00
2023-06-11T08:36:20.681Z,2521.00
2023-06-11T08:37:20.650Z,2592.00
2023-06-11T08:38:20.643Z,2608.00
2023-06-11T08:39:20.642Z,2622.00
2023-06-11T08:40:20.660Z,2645.00
2023-06-11T08:41:20.604Z,2675.00
2023-06-11T08:42:20.613Z,2746.00
2023-06-11T08:43:20.600Z,2831.00
2023-06-11T08:44:20.582Z,2800.00
2023-06-11T08:45:20.586Z,2868.00
2023-06-11T08:46:20.620Z,2828.00
2023-06-11T08:47:20.543Z,2908.00
2023-06-11T08:48:20.543Z,2949.00
2023-06-11T08:49:20.540Z,2988.00
2023-06-11T08:50:20.517Z,2986.00
2023-06-11T08:51:20.504Z,3055.00
2023-06-11T08:52:20.525Z,3047.00
2023-06-11T08:53:20.494Z,3102.00
2023-06-11T08:54:20.493Z,3119.00
2023-06-11T08:55:20.458Z,3183.00
2023-06-11T08:56:20.504Z,3209.00
2023-06-11T08:57:20.459Z,3215.00
2023-06-11T08:58:20.453Z,3320.00
2023-06-11T08:59:20.431Z,3361.00
2023-06-11T09:00:20.425Z,3348.00
2023-06-11T09:01:20.465Z,3389.00
2023-06-11T09:02:20.459Z,3433.00
2023-06-11T09:03:20.422Z,3437.00
2023-06-11T09:04:20.481Z,3605.00
2023-06-11T09:05:20.374Z,3595.00
2023-06-11T09:06:20.372Z,3700.00
2023-06-11T09:07:20.359Z,3642.00
2023-06-11T09:08:20.354Z,3587.00
2023-06-11T09:09:20.337Z,3637.00
2023-06-11T09:10:20.398Z,3651.00
2023-06-11T09:11:20.301Z,3715.00
2023-06-11T09:12:20.341Z,3733.00
2023-06-11T09:13:20.307Z,3786.00
2023-06-11T09:14:20.308Z,3889.00
2023-06-11T09:15:20.321Z,3860.00
2023-06-11T09:16:20.280Z,3860.00
2023-06-11T09:17:20.329Z,3994.00
2023-06-11T09:18:20.263Z,4022.00
2023-06-11T09:19:20.232Z,4108.00
2023-06-11T09:20:20.247Z,3948.00
2023-06-11T09:21:20.208Z,4209.00
2023-06-11T09:22:20.217Z,4176.00
2023-06-11T09:23:20.196Z,4274.00
2023-06-11T09:24:20.243Z,4293.00
2023-06-11T09:25:20.163Z,4293.00
2023-06-11T09:26:20.175Z,4492.00
2023-06-11T09:27:20.154Z,4392.00
2023-06-11T09:28:20.182Z,4470.00
2023-06-11T09:29:20.138Z,4596.00
2023-06-11T09:30:20.282Z,4546.00
2023-06-11T09:31:20.136Z,4512.00
2023-06-11T09:32:33.340Z,4528.00
2023-06-11T09:33:21.178Z,4532.00
2023-06-11T09:34:20.093Z,4715.00
2023-06-11T09:35:22.105Z,4826.00
2023-06-11T09:36:20.080Z,4746.00
2023-06-11T09:37:20.088Z,4759.00
2023-06-11T09:38:20.072Z,4928.00
2023-06-11T09:39:20.034Z,4833.00
2023-06-11T09:40:20.157Z,4808.00
2023-06-11T09:41:20.655Z,5052.00
2023-06-11T09:42:20.015Z,4868.00
2023-06-11T09:43:19.999Z,4845.00
2023-06-11T09:44:20.044Z,4940.00
2023-06-11T09:45:19.983Z,4920.00
2023-06-11T09:46:20.011Z,4845.00
2023-06-11T09:47:19.967Z,4732.00
2023-06-11T09:48:19.967Z,4706.00
2023-06-11T09:49:19.949Z,4658.00
2023-06-11T09:50:20.046Z,4594.00
2023-06-11T09:51:19.942Z,4501.00
2023-06-11T09:52:19.939Z,4400.00
2023-06-11T09:53:19.914Z,4533.00
2023-06-11T09:54:19.913Z,4730.00
2023-06-11T09:55:19.882Z,4497.00
2023-06-11T09:56:19.901Z,4253.00
2023-06-11T09:57:19.871Z,4589.00
2023-06-11T09:58:19.862Z,4473.00
2023-06-11T09:59:19.854Z,4367.00
2023-06-11T10:00:19.874Z,4470.00
2023-06-11T10:01:19.842Z,4466.00
2023-06-11T10:02:19.857Z,4551.00
2023-06-11T10:03:19.866Z,4396.00
2023-06-11T10:04:19.887Z,4804.00
2023-06-11T10:05:19.794Z,4444.00
2023-06-11T10:06:19.790Z,4510.00
2023-06-11T10:07:19.778Z,4480.00
2023-06-11T10:08:19.776Z,4370.00
2023-06-11T10:09:19.758Z,4717.00
2023-06-11T10:10:19.763Z,4836.00
2023-06-11T10:11:19.733Z,4400.00
2023-06-11T10:12:19.739Z,4579.00
2023-06-11T10:13:19.716Z,4504.00
2023-06-11T10:14:19.710Z,4385.00
2023-06-11T10:15:19.698Z,4306.00
2023-06-11T10:16:19.816Z,4474.00
2023-06-11T10:17:19.681Z,4453.00
2023-06-11T10:18:19.681Z,4240.00
2023-06-11T10:19:19.654Z,4701.00
2023-06-11T10:20:19.667Z,4783.00
2023-06-11T10:21:19.643Z,4536.00
2023-06-11T10:22:19.644Z,4685.00
2023-06-11T10:23:19.639Z,4120.00
2023-06-11T10:24:19.752Z,4135.00
2023-06-11T10:25:19.606Z,4477.00
2023-06-11T10:26:19.720Z,3063.00
2023-06-11T10:27:19.588Z,6353.00
2023-06-11T10:28:19.583Z,4304.00
2023-06-11T10:29:19.567Z,5235.00
2023-06-11T10:30:19.567Z,2984.00
2023-06-11T10:31:19.550Z,10335.00
2023-06-11T10:32:19.576Z,10558.00
2023-06-11T10:33:19.639Z,13545.00
2023-06-11T10:34:19.576Z,3417.00
2023-06-11T10:35:19.623Z,2921.00
2023-06-11T10:36:19.514Z,14234.00
2023-06-11T10:37:19.499Z,11951.00
2023-06-11T10:38:19.494Z,4880.00
2023-06-11T10:39:19.526Z,16125.00
2023-06-11T10:40:20.809Z,15316.00
2023-06-11T10:41:19.471Z,16562.00
2023-06-11T10:42:19.453Z,27358.00
2023-06-11T10:43:19.435Z,25909.00
2023-06-11T10:44:19.428Z,12416.00
2023-06-11T10:45:19.431Z,4881.00
2023-06-11T10:46:19.495Z,17122.00
2023-06-11T10:47:19.413Z,5627.00
2023-06-11T10:48:19.414Z,5332.00
2023-06-11T10:49:19.393Z,5110.00
2023-06-11T10:50:19.390Z,5016.00
2023-06-11T10:51:19.362Z,5025.00
2023-06-11T10:52:19.351Z,5274.00
2023-06-11T10:53:19.361Z,5062.00
2023-06-11T10:54:19.332Z,2921.00
2023-06-11T10:55:19.377Z,20148.00
2023-06-11T10:56:19.324Z,5248.00
2023-06-11T10:57:19.321Z,5565.00
2023-06-11T10:58:19.419Z,2277.00
2023-06-11T10:59:19.310Z,4435.00
2023-06-11T11:00:19.288Z,4426.00
2023-06-11T11:01:19.315Z,20377.00
2023-06-11T11:02:19.535Z,3162.00
2023-06-11T11:03:19.415Z,12759.00
2023-06-11T11:04:19.356Z,2452.00
2023-06-11T11:05:19.256Z,10837.00
2023-06-11T11:06:19.218Z,2306.00
2023-06-11T11:07:19.218Z,10187.00
2023-06-11T11:08:21.665Z,11153.00
2023-06-11T11:09:19.198Z,3027.00
2023-06-11T11:10:19.179Z,20433.00
2023-06-11T11:11:19.189Z,8664.00
2023-06-11T11:12:19.150Z,5295.00
2023-06-11T11:13:19.151Z,5800.00
2023-06-11T11:14:19.143Z,5545.00
2023-06-11T11:15:19.151Z,5138.00
2023-06-11T11:16:19.164Z,6731.00
2023-06-11T11:17:19.170Z,4163.00
2023-06-11T11:18:19.102Z,7942.00
2023-06-11T11:19:19.100Z,6869.00
2023-06-11T11:20:19.130Z,6705.00
2023-06-11T11:21:19.079Z,5057.00
2023-06-11T11:22:19.069Z,8531.00
2023-06-11T11:23:19.085Z,5713.00
2023-06-11T11:24:19.086Z,2766.00
2023-06-11T11:25:19.040Z,20807.00
2023-06-11T11:26:19.088Z,4370.00
2023-06-11T11:27:19.025Z,20236.00
2023-06-11T11:28:19.026Z,26662.00
2023-06-11T11:29:19.009Z,27670.00
2023-06-11T11:30:19.060Z,7727.00
2023-06-11T11:31:18.989Z,6204.00
2023-06-11T11:32:19.075Z,6278.00
2023-06-11T11:33:19.093Z,4372.00
2023-06-11T11:34:18.956Z,6995.00
2023-06-11T11:35:18.952Z,6592.00
2023-06-11T11:36:18.955Z,8003.00
2023-06-11T11:37:18.936Z,3335.00
2023-06-11T11:38:18.931Z,20265.00
2023-06-11T11:39:18.916Z,5065.00
2023-06-11T11:40:18.897Z,21621.00
2023-06-11T11:41:18.898Z,3220.00
2023-06-11T11:42:18.894Z,22280.00
2023-06-11T11:43:18.907Z,28259.00
2023-06-11T11:44:18.875Z,23666.00
2023-06-11T11:45:18.872Z,25465.00
2023-06-11T11:46:18.969Z,18132.00
2023-06-11T11:47:18.845Z,22321.00
2023-06-11T11:48:18.969Z,14647.00
2023-06-11T11:49:18.854Z,81364.00
2023-06-11T11:50:18.818Z,74844.00
2023-06-11T11:51:19.056Z,84009.00
2023-06-11T11:52:18.861Z,81580.00
2023-06-11T11:53:18.819Z,80970.00
2023-06-11T11:54:18.776Z,82083.00
2023-06-11T11:55:18.780Z,60154.00
2023-06-11T11:56:18.775Z,82256.00
2023-06-11T11:57:18.764Z,82249.00
2023-06-11T11:58:18.764Z,82261.00
2023-06-11T11:59:18.733Z,83171.00
2023-06-11T12:00:18.727Z,83160.00
2023-06-11T12:01:18.716Z,83613.00
2023-06-11T12:02:18.728Z,82959.00
2023-06-11T12:03:18.841Z,83212.00
2023-06-11T12:04:18.699Z,83167.00
2023-06-11T12:05:18.680Z,82683.00
2023-06-11T12:06:18.710Z,62949.00
2023-06-11T12:07:18.669Z,6899.00
2023-06-11T12:08:18.674Z,82280.00
2023-06-11T12:09:18.650Z,80071.00
2023-06-11T12:10:18.634Z,78243.00
2023-06-11T12:11:18.630Z,76010.00
2023-06-11T12:12:18.625Z,76862.00
2023-06-11T12:13:18.614Z,81402.00
2023-06-11T12:14:18.609Z,82750.00
2023-06-11T12:15:18.611Z,83458.00
2023-06-11T12:16:18.652Z,83374.00
2023-06-11T12:17:18.617Z,81781.00
2023-06-11T12:18:18.570Z,81077.00
2023-06-11T12:19:23.825Z,82245.00
2023-06-11T12:20:19.588Z,81462.00
2023-06-11T12:21:18.542Z,81937.00
2023-06-11T12:22:18.533Z,58174.00
2023-06-11T12:23:18.558Z,83118.00
2023-06-11T12:24:18.654Z,82979.00
2023-06-11T12:25:18.535Z,81434.00